Disclaimer

Please do not use the information listed here in-flight or in-navigation, as they are not provided to us by the airports but are provided by volunteers, so they might be outdated.

Search


Regions


Airport information page

Radio informations:
Tower (TWR) - 122.1 MHz
ANDRAVIDA APP - 120.65 MHz
RDO - 5637 MHz

Airport informations:
Latitude: 38° 09' 04.00" N
Longitude: 021° 25' 32.00" E
Elevation: 46 feet - 14 meters
Operating hours: Remarks
Operating agency: Military
Timezone: UTC+2(+3DT) - Last Sunday in March to last Sunday in October
Fuel: Jet A1, without icing nhibitor.

JP-8, SemiKeroscene MIL Spec T-83133, without icing inhibitor

Runway information:
18R/36L - 10997 x 148 feet< - >3352 x 45 meters
18L/36R - 10999 x 70 feet< - >3352 x 21 meters

Recent METARs:
LGRX 210050Z 22012KT 9999 FEW020TCU SCT030 BKN080 15/15 Q1012 RETS
LGRX 210050Z 22012KT 9999 FEW020TCU SCT030 BKN080 15/15 Q1012 RETS
LGRX 210250Z 07007KT 9999 FEW025 16/15 Q1012

Airport on the map: